sensor_id;sensor_type;location;lat;lon;timestamp;P1;durP1;ratioP1;P2;durP2;ratioP2
52368;SDS011;38298;50.346;3.526;2023-07-16T00:00:13;8.43;;;1.40;;
52368;SDS011;38298;50.346;3.526;2023-07-16T00:02:40;4.65;;;1.55;;
52368;SDS011;38298;50.346;3.526;2023-07-16T00:05:06;7.30;;;1.27;;
52368;SDS011;38298;50.346;3.526;2023-07-16T00:07:32;4.85;;;1.20;;
52368;SDS011;38298;50.346;3.526;2023-07-16T00:09:58;3.95;;;1.30;;
52368;SDS011;38298;50.346;3.526;2023-07-16T00:12:24;3.13;;;1.08;;
52368;SDS011;38298;50.346;3.526;2023-07-16T00:14:50;2.97;;;1.40;;
52368;SDS011;38298;50.346;3.526;2023-07-16T00:17:16;3.75;;;1.27;;
52368;SDS011;38298;50.346;3.526;2023-07-16T00:19:42;11.00;;;1.10;;
52368;SDS011;38298;50.346;3.526;2023-07-16T00:22:08;5.93;;;1.10;;
52368;SDS011;38298;50.346;3.526;2023-07-16T00:24:34;11.35;;;1.92;;
52368;SDS011;38298;50.346;3.526;2023-07-16T00:27:00;4.93;;;1.50;;
52368;SDS011;38298;50.346;3.526;2023-07-16T00:29:26;2.92;;;1.23;;
52368;SDS011;38298;50.346;3.526;2023-07-16T00:31:52;8.10;;;1.45;;
52368;SDS011;38298;50.346;3.526;2023-07-16T00:34:18;3.10;;;1.25;;
52368;SDS011;38298;50.346;3.526;2023-07-16T00:36:44;8.63;;;1.20;;
52368;SDS011;38298;50.346;3.526;2023-07-16T00:39:10;3.90;;;1.27;;
52368;SDS011;38298;50.346;3.526;2023-07-16T00:41:36;7.00;;;1.40;;
52368;SDS011;38298;50.346;3.526;2023-07-16T00:44:02;5.95;;;1.73;;
52368;SDS011;38298;50.346;3.526;2023-07-16T00:46:28;2.95;;;1.52;;
52368;SDS011;38298;50.346;3.526;2023-07-16T00:48:54;7.85;;;1.85;;
52368;SDS011;38298;50.346;3.526;2023-07-16T00:51:24;7.82;;;1.90;;
52368;SDS011;38298;50.346;3.526;2023-07-16T00:53:50;4.45;;;1.45;;
52368;SDS011;38298;50.346;3.526;2023-07-16T00:56:17;7.13;;;1.73;;
52368;SDS011;38298;50.346;3.526;2023-07-16T00:58:43;5.15;;;1.92;;
52368;SDS011;38298;50.346;3.526;2023-07-16T01:01:09;6.55;;;1.63;;
52368;SDS011;38298;50.346;3.526;2023-07-16T01:03:35;4.75;;;1.77;;
52368;SDS011;38298;50.346;3.526;2023-07-16T01:06:06;5.22;;;2.03;;
52368;SDS011;38298;50.346;3.526;2023-07-16T01:08:38;9.77;;;2.17;;
52368;SDS011;38298;50.346;3.526;2023-07-16T01:11:04;9.80;;;2.60;;
52368;SDS011;38298;50.346;3.526;2023-07-16T01:13:30;6.57;;;2.45;;
52368;SDS011;38298;50.346;3.526;2023-07-16T01:15:57;5.47;;;2.10;;
52368;SDS011;38298;50.346;3.526;2023-07-16T01:18:23;5.75;;;2.33;;
52368;SDS011;38298;50.346;3.526;2023-07-16T01:20:49;5.97;;;2.22;;
52368;SDS011;38298;50.346;3.526;2023-07-16T01:26:02;7.88;;;2.45;;
52368;SDS011;38298;50.346;3.526;2023-07-16T01:28:38;8.00;;;2.78;;
52368;SDS011;38298;50.346;3.526;2023-07-16T01:31:10;13.00;;;2.65;;
52368;SDS011;38298;50.346;3.526;2023-07-16T01:33:36;11.27;;;2.78;;
52368;SDS011;38298;50.346;3.526;2023-07-16T01:36:03;5.70;;;2.88;;
52368;SDS011;38298;50.346;3.526;2023-07-16T01:38:30;9.18;;;2.80;;
52368;SDS011;38298;50.346;3.526;2023-07-16T01:40:56;12.10;;;2.35;;
52368;SDS011;38298;50.346;3.526;2023-07-16T01:43:22;4.25;;;1.90;;
52368;SDS011;38298;50.346;3.526;2023-07-16T01:45:48;8.55;;;2.53;;
52368;SDS011;38298;50.346;3.526;2023-07-16T01:50:40;4.97;;;2.10;;
52368;SDS011;38298;50.346;3.526;2023-07-16T01:53:07;7.25;;;2.53;;
52368;SDS011;38298;50.346;3.526;2023-07-16T01:55:33;6.75;;;2.00;;
52368;SDS011;38298;50.346;3.526;2023-07-16T01:57:59;4.03;;;1.83;;
52368;SDS011;38298;50.346;3.526;2023-07-16T02:00:25;7.53;;;2.10;;
52368;SDS011;38298;50.346;3.526;2023-07-16T02:02:51;11.20;;;2.50;;
52368;SDS011;38298;50.346;3.526;2023-07-16T02:05:17;10.60;;;2.75;;
52368;SDS011;38298;50.346;3.526;2023-07-16T02:07:43;7.38;;;2.45;;
52368;SDS011;38298;50.346;3.526;2023-07-16T02:10:09;6.53;;;2.40;;
52368;SDS011;38298;50.346;3.526;2023-07-16T02:12:35;8.77;;;2.40;;
52368;SDS011;38298;50.346;3.526;2023-07-16T02:15:01;10.90;;;2.72;;
52368;SDS011;38298;50.346;3.526;2023-07-16T02:17:27;7.75;;;2.58;;
52368;SDS011;38298;50.346;3.526;2023-07-16T02:19:53;6.85;;;2.55;;
52368;SDS011;38298;50.346;3.526;2023-07-16T02:22:19;15.88;;;3.25;;
52368;SDS011;38298;50.346;3.526;2023-07-16T02:24:46;12.18;;;2.95;;
52368;SDS011;38298;50.346;3.526;2023-07-16T02:27:11;7.13;;;2.22;;
52368;SDS011;38298;50.346;3.526;2023-07-16T02:29:37;9.07;;;2.55;;
52368;SDS011;38298;50.346;3.526;2023-07-16T02:32:04;9.30;;;2.80;;
52368;SDS011;38298;50.346;3.526;2023-07-16T02:34:30;6.95;;;2.60;;
52368;SDS011;38298;50.346;3.526;2023-07-16T02:36:56;4.95;;;2.45;;
52368;SDS011;38298;50.346;3.526;2023-07-16T02:39:22;6.85;;;2.60;;
52368;SDS011;38298;50.346;3.526;2023-07-16T02:41:48;7.38;;;2.80;;
52368;SDS011;38298;50.346;3.526;2023-07-16T02:44:14;7.80;;;2.92;;
52368;SDS011;38298;50.346;3.526;2023-07-16T02:46:40;7.68;;;2.88;;
52368;SDS011;38298;50.346;3.526;2023-07-16T02:49:06;8.40;;;3.17;;
52368;SDS011;38298;50.346;3.526;2023-07-16T02:51:32;12.02;;;3.30;;
52368;SDS011;38298;50.346;3.526;2023-07-16T02:53:58;5.82;;;2.80;;
52368;SDS011;38298;50.346;3.526;2023-07-16T02:56:24;5.95;;;2.85;;
52368;SDS011;38298;50.346;3.526;2023-07-16T02:58:50;9.93;;;3.03;;
52368;SDS011;38298;50.346;3.526;2023-07-16T03:01:16;11.88;;;3.28;;
52368;SDS011;38298;50.346;3.526;2023-07-16T03:03:42;5.93;;;3.05;;
52368;SDS011;38298;50.346;3.526;2023-07-16T03:06:08;12.88;;;3.72;;
52368;SDS011;38298;50.346;3.526;2023-07-16T03:08:34;8.45;;;3.17;;
52368;SDS011;38298;50.346;3.526;2023-07-16T03:11:00;14.77;;;4.25;;
52368;SDS011;38298;50.346;3.526;2023-07-16T03:13:26;8.48;;;3.70;;
52368;SDS011;38298;50.346;3.526;2023-07-16T03:15:52;10.02;;;3.25;;
52368;SDS011;38298;50.346;3.526;2023-07-16T03:18:18;10.80;;;3.70;;
52368;SDS011;38298;50.346;3.526;2023-07-16T03:20:45;8.20;;;3.47;;
52368;SDS011;38298;50.346;3.526;2023-07-16T03:23:11;9.32;;;3.42;;
52368;SDS011;38298;50.346;3.526;2023-07-16T03:25:37;9.48;;;3.45;;
52368;SDS011;38298;50.346;3.526;2023-07-16T03:28:03;11.10;;;3.53;;
52368;SDS011;38298;50.346;3.526;2023-07-16T03:30:30;12.50;;;3.50;;
52368;SDS011;38298;50.346;3.526;2023-07-16T03:32:56;7.90;;;3.30;;
52368;SDS011;38298;50.346;3.526;2023-07-16T03:35:22;12.48;;;3.35;;
52368;SDS011;38298;50.346;3.526;2023-07-16T03:37:48;10.48;;;3.63;;
52368;SDS011;38298;50.346;3.526;2023-07-16T03:40:15;8.05;;;3.63;;
52368;SDS011;38298;50.346;3.526;2023-07-16T03:42:41;11.00;;;3.90;;
52368;SDS011;38298;50.346;3.526;2023-07-16T03:45:07;12.85;;;3.78;;
52368;SDS011;38298;50.346;3.526;2023-07-16T03:47:34;13.38;;;3.60;;
52368;SDS011;38298;50.346;3.526;2023-07-16T03:50:00;8.23;;;3.55;;
52368;SDS011;38298;50.346;3.526;2023-07-16T03:52:26;9.10;;;3.33;;
52368;SDS011;38298;50.346;3.526;2023-07-16T03:54:52;7.53;;;3.70;;
52368;SDS011;38298;50.346;3.526;2023-07-16T03:57:18;13.57;;;3.70;;
52368;SDS011;38298;50.346;3.526;2023-07-16T03:59:44;13.55;;;4.03;;
52368;SDS011;38298;50.346;3.526;2023-07-16T04:02:10;9.00;;;3.85;;
52368;SDS011;38298;50.346;3.526;2023-07-16T04:04:36;11.32;;;3.95;;
52368;SDS011;38298;50.346;3.526;2023-07-16T04:07:02;15.93;;;4.40;;
52368;SDS011;38298;50.346;3.526;2023-07-16T04:09:28;13.02;;;4.53;;
52368;SDS011;38298;50.346;3.526;2023-07-16T04:11:54;11.48;;;4.07;;
52368;SDS011;38298;50.346;3.526;2023-07-16T04:14:20;11.68;;;4.50;;
52368;SDS011;38298;50.346;3.526;2023-07-16T04:16:46;11.20;;;4.13;;
52368;SDS011;38298;50.346;3.526;2023-07-16T04:19:12;9.50;;;4.10;;
52368;SDS011;38298;50.346;3.526;2023-07-16T04:21:38;9.77;;;4.18;;
52368;SDS011;38298;50.346;3.526;2023-07-16T04:24:04;14.75;;;4.43;;
52368;SDS011;38298;50.346;3.526;2023-07-16T04:26:30;10.38;;;4.25;;
52368;SDS011;38298;50.346;3.526;2023-07-16T04:28:57;18.10;;;4.60;;
52368;SDS011;38298;50.346;3.526;2023-07-16T04:31:23;10.45;;;4.28;;
52368;SDS011;38298;50.346;3.526;2023-07-16T04:33:49;13.40;;;4.38;;
52368;SDS011;38298;50.346;3.526;2023-07-16T04:36:15;13.23;;;4.03;;
52368;SDS011;38298;50.346;3.526;2023-07-16T04:38:41;9.65;;;4.35;;
52368;SDS011;38298;50.346;3.526;2023-07-16T04:41:07;12.65;;;4.43;;
52368;SDS011;38298;50.346;3.526;2023-07-16T04:43:33;13.20;;;4.43;;
52368;SDS011;38298;50.346;3.526;2023-07-16T04:45:59;11.55;;;3.75;;
52368;SDS011;38298;50.346;3.526;2023-07-16T04:48:26;6.90;;;3.72;;
52368;SDS011;38298;50.346;3.526;2023-07-16T04:50:54;12.60;;;3.92;;
52368;SDS011;38298;50.346;3.526;2023-07-16T04:53:21;13.55;;;3.95;;
52368;SDS011;38298;50.346;3.526;2023-07-16T04:55:47;11.40;;;3.97;;
52368;SDS011;38298;50.346;3.526;2023-07-16T04:58:15;14.93;;;4.28;;
52368;SDS011;38298;50.346;3.526;2023-07-16T05:00:41;11.75;;;3.75;;
52368;SDS011;38298;50.346;3.526;2023-07-16T05:03:07;11.95;;;4.05;;
52368;SDS011;38298;50.346;3.526;2023-07-16T05:05:33;10.00;;;4.50;;
52368;SDS011;38298;50.346;3.526;2023-07-16T05:08:02;16.23;;;5.25;;
52368;SDS011;38298;50.346;3.526;2023-07-16T05:10:28;13.13;;;4.13;;
52368;SDS011;38298;50.346;3.526;2023-07-16T05:12:54;14.40;;;4.63;;
52368;SDS011;38298;50.346;3.526;2023-07-16T05:15:20;11.10;;;4.30;;
52368;SDS011;38298;50.346;3.526;2023-07-16T05:17:46;10.20;;;4.53;;
52368;SDS011;38298;50.346;3.526;2023-07-16T05:20:12;13.13;;;4.38;;
52368;SDS011;38298;50.346;3.526;2023-07-16T05:22:38;11.23;;;4.18;;
52368;SDS011;38298;50.346;3.526;2023-07-16T05:25:05;14.13;;;5.05;;
52368;SDS011;38298;50.346;3.526;2023-07-16T05:27:31;13.57;;;5.43;;
52368;SDS011;38298;50.346;3.526;2023-07-16T05:29:57;11.70;;;4.70;;
52368;SDS011;38298;50.346;3.526;2023-07-16T05:32:23;18.42;;;4.15;;
52368;SDS011;38298;50.346;3.526;2023-07-16T05:34:49;10.48;;;4.38;;
52368;SDS011;38298;50.346;3.526;2023-07-16T05:37:15;12.52;;;4.57;;
52368;SDS011;38298;50.346;3.526;2023-07-16T05:39:41;13.65;;;4.72;;
52368;SDS011;38298;50.346;3.526;2023-07-16T05:42:07;14.27;;;4.65;;
52368;SDS011;38298;50.346;3.526;2023-07-16T05:44:33;13.18;;;4.88;;
52368;SDS011;38298;50.346;3.526;2023-07-16T05:46:59;12.45;;;4.90;;
52368;SDS011;38298;50.346;3.526;2023-07-16T05:49:25;15.07;;;4.60;;
52368;SDS011;38298;50.346;3.526;2023-07-16T05:51:51;10.75;;;4.82;;
52368;SDS011;38298;50.346;3.526;2023-07-16T05:54:19;18.23;;;5.05;;
52368;SDS011;38298;50.346;3.526;2023-07-16T05:56:45;16.45;;;4.82;;
52368;SDS011;38298;50.346;3.526;2023-07-16T05:59:11;17.13;;;5.63;;
52368;SDS011;38298;50.346;3.526;2023-07-16T06:01:37;14.80;;;5.22;;
52368;SDS011;38298;50.346;3.526;2023-07-16T06:04:03;16.38;;;5.22;;
52368;SDS011;38298;50.346;3.526;2023-07-16T06:06:29;16.05;;;5.00;;
52368;SDS011;38298;50.346;3.526;2023-07-16T06:08:55;16.65;;;4.90;;
52368;SDS011;38298;50.346;3.526;2023-07-16T06:11:21;17.00;;;5.38;;
52368;SDS011;38298;50.346;3.526;2023-07-16T06:13:47;16.67;;;4.97;;
52368;SDS011;38298;50.346;3.526;2023-07-16T06:16:13;11.38;;;4.93;;
52368;SDS011;38298;50.346;3.526;2023-07-16T06:18:39;16.58;;;5.70;;
52368;SDS011;38298;50.346;3.526;2023-07-16T06:21:06;15.70;;;4.88;;
52368;SDS011;38298;50.346;3.526;2023-07-16T06:23:31;17.73;;;5.10;;
52368;SDS011;38298;50.346;3.526;2023-07-16T06:25:58;10.57;;;4.72;;
52368;SDS011;38298;50.346;3.526;2023-07-16T06:28:24;16.30;;;5.43;;
52368;SDS011;38298;50.346;3.526;2023-07-16T06:30:50;15.82;;;4.93;;
52368;SDS011;38298;50.346;3.526;2023-07-16T06:33:17;15.27;;;4.97;;
52368;SDS011;38298;50.346;3.526;2023-07-16T06:35:44;10.05;;;4.57;;
52368;SDS011;38298;50.346;3.526;2023-07-16T06:38:11;14.27;;;4.63;;
52368;SDS011;38298;50.346;3.526;2023-07-16T06:40:37;18.15;;;5.00;;
52368;SDS011;38298;50.346;3.526;2023-07-16T06:43:03;13.80;;;5.00;;
52368;SDS011;38298;50.346;3.526;2023-07-16T06:45:29;12.00;;;4.97;;
52368;SDS011;38298;50.346;3.526;2023-07-16T06:47:55;11.98;;;5.07;;
52368;SDS011;38298;50.346;3.526;2023-07-16T06:50:21;11.93;;;5.25;;
52368;SDS011;38298;50.346;3.526;2023-07-16T06:52:47;11.63;;;4.32;;
52368;SDS011;38298;50.346;3.526;2023-07-16T06:55:13;17.15;;;5.88;;
52368;SDS011;38298;50.346;3.526;2023-07-16T06:57:39;11.48;;;4.50;;
52368;SDS011;38298;50.346;3.526;2023-07-16T07:00:06;12.98;;;4.45;;
52368;SDS011;38298;50.346;3.526;2023-07-16T07:02:35;14.02;;;4.47;;
52368;SDS011;38298;50.346;3.526;2023-07-16T07:05:01;12.27;;;4.30;;
52368;SDS011;38298;50.346;3.526;2023-07-16T07:07:27;13.30;;;4.32;;
52368;SDS011;38298;50.346;3.526;2023-07-16T07:09:53;13.07;;;4.47;;
52368;SDS011;38298;50.346;3.526;2023-07-16T07:12:19;9.70;;;4.07;;
52368;SDS011;38298;50.346;3.526;2023-07-16T07:14:46;10.23;;;3.90;;
52368;SDS011;38298;50.346;3.526;2023-07-16T07:17:12;11.95;;;3.80;;
52368;SDS011;38298;50.346;3.526;2023-07-16T07:19:38;13.13;;;4.28;;
52368;SDS011;38298;50.346;3.526;2023-07-16T07:22:04;9.02;;;4.00;;
52368;SDS011;38298;50.346;3.526;2023-07-16T07:24:30;11.60;;;4.40;;
52368;SDS011;38298;50.346;3.526;2023-07-16T07:26:56;13.55;;;4.70;;
52368;SDS011;38298;50.346;3.526;2023-07-16T07:29:22;15.23;;;4.88;;
52368;SDS011;38298;50.346;3.526;2023-07-16T07:31:49;11.82;;;3.92;;
52368;SDS011;38298;50.346;3.526;2023-07-16T07:34:15;9.38;;;3.70;;
52368;SDS011;38298;50.346;3.526;2023-07-16T07:36:41;10.25;;;4.43;;
52368;SDS011;38298;50.346;3.526;2023-07-16T07:39:07;15.23;;;4.35;;
52368;SDS011;38298;50.346;3.526;2023-07-16T07:41:33;13.95;;;4.18;;
52368;SDS011;38298;50.346;3.526;2023-07-16T07:43:59;8.65;;;3.55;;
52368;SDS011;38298;50.346;3.526;2023-07-16T07:46:25;8.70;;;3.75;;
52368;SDS011;38298;50.346;3.526;2023-07-16T07:48:51;7.70;;;3.75;;
52368;SDS011;38298;50.346;3.526;2023-07-16T07:51:19;10.95;;;3.83;;
52368;SDS011;38298;50.346;3.526;2023-07-16T07:53:44;7.40;;;3.30;;
52368;SDS011;38298;50.346;3.526;2023-07-16T07:56:10;8.27;;;3.42;;
52368;SDS011;38298;50.346;3.526;2023-07-16T07:58:36;14.48;;;3.85;;
52368;SDS011;38298;50.346;3.526;2023-07-16T08:01:06;15.00;;;3.80;;
52368;SDS011;38298;50.346;3.526;2023-07-16T08:03:32;10.32;;;3.47;;
52368;SDS011;38298;50.346;3.526;2023-07-16T08:05:59;14.02;;;3.83;;
52368;SDS011;38298;50.346;3.526;2023-07-16T08:08:25;12.27;;;3.78;;
52368;SDS011;38298;50.346;3.526;2023-07-16T08:10:51;8.77;;;3.72;;
52368;SDS011;38298;50.346;3.526;2023-07-16T08:13:17;9.73;;;3.67;;
52368;SDS011;38298;50.346;3.526;2023-07-16T08:15:43;8.95;;;3.90;;
52368;SDS011;38298;50.346;3.526;2023-07-16T08:18:08;13.60;;;3.70;;
52368;SDS011;38298;50.346;3.526;2023-07-16T08:20:38;8.93;;;3.53;;
52368;SDS011;38298;50.346;3.526;2023-07-16T08:23:05;11.95;;;3.50;;
52368;SDS011;38298;50.346;3.526;2023-07-16T08:25:31;11.13;;;3.80;;
52368;SDS011;38298;50.346;3.526;2023-07-16T08:27:57;10.63;;;3.85;;
52368;SDS011;38298;50.346;3.526;2023-07-16T08:30:23;10.52;;;3.33;;
52368;SDS011;38298;50.346;3.526;2023-07-16T08:32:49;12.00;;;3.50;;
52368;SDS011;38298;50.346;3.526;2023-07-16T08:35:16;8.32;;;3.38;;
52368;SDS011;38298;50.346;3.526;2023-07-16T08:37:43;10.05;;;3.60;;
52368;SDS011;38298;50.346;3.526;2023-07-16T08:40:09;12.40;;;3.90;;
52368;SDS011;38298;50.346;3.526;2023-07-16T08:42:36;8.40;;;3.53;;
52368;SDS011;38298;50.346;3.526;2023-07-16T08:45:03;11.57;;;3.35;;
52368;SDS011;38298;50.346;3.526;2023-07-16T08:47:31;11.52;;;3.03;;
52368;SDS011;38298;50.346;3.526;2023-07-16T08:49:57;6.95;;;2.70;;
52368;SDS011;38298;50.346;3.526;2023-07-16T08:52:23;16.23;;;3.17;;
52368;SDS011;38298;50.346;3.526;2023-07-16T08:54:49;11.50;;;2.90;;
52368;SDS011;38298;50.346;3.526;2023-07-16T08:57:15;6.90;;;2.78;;
52368;SDS011;38298;50.346;3.526;2023-07-16T08:59:42;8.40;;;3.17;;
52368;SDS011;38298;50.346;3.526;2023-07-16T09:02:08;12.07;;;3.25;;
52368;SDS011;38298;50.346;3.526;2023-07-16T09:04:34;7.20;;;2.95;;
52368;SDS011;38298;50.346;3.526;2023-07-16T09:07:00;6.15;;;3.45;;
52368;SDS011;38298;50.346;3.526;2023-07-16T09:09:26;11.45;;;3.28;;
52368;SDS011;38298;50.346;3.526;2023-07-16T09:11:53;7.15;;;3.10;;
52368;SDS011;38298;50.346;3.526;2023-07-16T09:14:19;5.63;;;2.40;;
52368;SDS011;38298;50.346;3.526;2023-07-16T09:16:51;9.48;;;2.60;;
52368;SDS011;38298;50.346;3.526;2023-07-16T09:19:17;7.72;;;2.38;;
52368;SDS011;38298;50.346;3.526;2023-07-16T09:21:47;7.78;;;2.70;;
52368;SDS011;38298;50.346;3.526;2023-07-16T09:24:13;7.28;;;3.00;;
52368;SDS011;38298;50.346;3.526;2023-07-16T09:26:47;5.95;;;2.58;;
52368;SDS011;38298;50.346;3.526;2023-07-16T09:29:13;5.60;;;2.22;;
52368;SDS011;38298;50.346;3.526;2023-07-16T09:31:50;12.10;;;2.65;;
52368;SDS011;38298;50.346;3.526;2023-07-16T09:34:16;8.70;;;2.83;;
52368;SDS011;38298;50.346;3.526;2023-07-16T09:36:42;8.80;;;2.20;;
52368;SDS011;38298;50.346;3.526;2023-07-16T09:39:08;7.70;;;2.65;;
52368;SDS011;38298;50.346;3.526;2023-07-16T09:41:34;5.93;;;2.13;;
52368;SDS011;38298;50.346;3.526;2023-07-16T09:44:03;7.20;;;2.00;;
52368;SDS011;38298;50.346;3.526;2023-07-16T09:46:29;7.80;;;2.28;;
52368;SDS011;38298;50.346;3.526;2023-07-16T09:48:55;8.70;;;2.08;;
52368;SDS011;38298;50.346;3.526;2023-07-16T09:51:21;4.53;;;1.98;;
52368;SDS011;38298;50.346;3.526;2023-07-16T09:53:48;10.18;;;2.70;;
52368;SDS011;38298;50.346;3.526;2023-07-16T09:56:15;5.10;;;2.25;;
52368;SDS011;38298;50.346;3.526;2023-07-16T09:58:42;6.20;;;2.17;;
52368;SDS011;38298;50.346;3.526;2023-07-16T10:01:08;10.32;;;2.33;;
52368;SDS011;38298;50.346;3.526;2023-07-16T10:03:35;5.32;;;2.70;;
52368;SDS011;38298;50.346;3.526;2023-07-16T10:06:07;7.65;;;2.70;;
52368;SDS011;38298;50.346;3.526;2023-07-16T10:08:33;8.38;;;3.13;;
52368;SDS011;38298;50.346;3.526;2023-07-16T10:11:00;8.93;;;2.60;;
52368;SDS011;38298;50.346;3.526;2023-07-16T10:13:26;7.00;;;2.42;;
52368;SDS011;38298;50.346;3.526;2023-07-16T10:15:58;8.10;;;2.88;;
52368;SDS011;38298;50.346;3.526;2023-07-16T10:18:26;10.75;;;2.72;;
52368;SDS011;38298;50.346;3.526;2023-07-16T10:20:53;7.93;;;2.53;;
52368;SDS011;38298;50.346;3.526;2023-07-16T10:23:19;8.88;;;2.92;;
52368;SDS011;38298;50.346;3.526;2023-07-16T10:25:58;6.13;;;2.05;;
52368;SDS011;38298;50.346;3.526;2023-07-16T10:28:24;5.53;;;2.50;;
52368;SDS011;38298;50.346;3.526;2023-07-16T10:30:50;8.27;;;2.35;;
52368;SDS011;38298;50.346;3.526;2023-07-16T10:33:16;7.78;;;2.67;;
52368;SDS011;38298;50.346;3.526;2023-07-16T10:35:42;5.95;;;2.50;;
52368;SDS011;38298;50.346;3.526;2023-07-16T10:38:08;7.25;;;2.38;;
52368;SDS011;38298;50.346;3.526;2023-07-16T10:40:39;6.03;;;2.30;;
52368;SDS011;38298;50.346;3.526;2023-07-16T10:43:05;8.60;;;2.00;;
52368;SDS011;38298;50.346;3.526;2023-07-16T10:45:32;6.38;;;2.10;;
52368;SDS011;38298;50.346;3.526;2023-07-16T10:47:58;10.48;;;2.40;;
52368;SDS011;38298;50.346;3.526;2023-07-16T10:50:24;4.22;;;1.98;;
52368;SDS011;38298;50.346;3.526;2023-07-16T10:52:51;9.90;;;2.17;;
52368;SDS011;38298;50.346;3.526;2023-07-16T10:55:17;7.85;;;2.10;;
52368;SDS011;38298;50.346;3.526;2023-07-16T10:57:43;7.47;;;1.90;;
52368;SDS011;38298;50.346;3.526;2023-07-16T11:00:11;7.88;;;2.38;;
52368;SDS011;38298;50.346;3.526;2023-07-16T11:02:39;5.97;;;1.95;;
52368;SDS011;38298;50.346;3.526;2023-07-16T11:05:05;11.43;;;2.38;;
52368;SDS011;38298;50.346;3.526;2023-07-16T11:07:34;7.63;;;3.15;;
52368;SDS011;38298;50.346;3.526;2023-07-16T11:10:00;8.68;;;2.45;;
52368;SDS011;38298;50.346;3.526;2023-07-16T11:12:28;5.30;;;2.38;;
52368;SDS011;38298;50.346;3.526;2023-07-16T11:14:54;9.95;;;2.33;;
52368;SDS011;38298;50.346;3.526;2023-07-16T11:17:23;7.07;;;2.47;;
52368;SDS011;38298;50.346;3.526;2023-07-16T11:19:50;8.18;;;2.38;;
52368;SDS011;38298;50.346;3.526;2023-07-16T11:22:16;6.72;;;2.30;;
52368;SDS011;38298;50.346;3.526;2023-07-16T11:24:43;5.38;;;2.35;;
52368;SDS011;38298;50.346;3.526;2023-07-16T11:29:52;5.35;;;2.22;;
52368;SDS011;38298;50.346;3.526;2023-07-16T11:32:29;3.95;;;1.92;;
52368;SDS011;38298;50.346;3.526;2023-07-16T11:34:55;4.35;;;2.10;;
52368;SDS011;38298;50.346;3.526;2023-07-16T11:37:21;4.45;;;2.00;;
52368;SDS011;38298;50.346;3.526;2023-07-16T11:39:47;3.83;;;1.92;;
52368;SDS011;38298;50.346;3.526;2023-07-16T11:42:14;6.25;;;2.10;;
52368;SDS011;38298;50.346;3.526;2023-07-16T11:44:40;6.43;;;3.10;;
52368;SDS011;38298;50.346;3.526;2023-07-16T11:47:06;6.35;;;2.53;;
52368;SDS011;38298;50.346;3.526;2023-07-16T11:49:32;18.65;;;3.50;;
52368;SDS011;38298;50.346;3.526;2023-07-16T11:51:58;6.65;;;2.40;;
52368;SDS011;38298;50.346;3.526;2023-07-16T11:54:27;5.25;;;2.00;;
52368;SDS011;38298;50.346;3.526;2023-07-16T11:56:56;3.92;;;2.00;;
52368;SDS011;38298;50.346;3.526;2023-07-16T11:59:22;5.68;;;2.35;;
52368;SDS011;38298;50.346;3.526;2023-07-16T12:01:48;5.82;;;2.50;;
52368;SDS011;38298;50.346;3.526;2023-07-16T12:04:15;8.65;;;4.40;;
52368;SDS011;38298;50.346;3.526;2023-07-16T12:06:41;11.23;;;4.05;;
52368;SDS011;38298;50.346;3.526;2023-07-16T12:09:07;4.10;;;1.77;;
52368;SDS011;38298;50.346;3.526;2023-07-16T12:11:33;2.63;;;1.30;;
52368;SDS011;38298;50.346;3.526;2023-07-16T12:13:59;4.10;;;1.58;;
52368;SDS011;38298;50.346;3.526;2023-07-16T12:16:25;4.85;;;1.48;;
52368;SDS011;38298;50.346;3.526;2023-07-16T12:18:51;5.90;;;2.30;;
52368;SDS011;38298;50.346;3.526;2023-07-16T12:21:17;4.07;;;1.65;;
52368;SDS011;38298;50.346;3.526;2023-07-16T12:23:43;4.35;;;1.80;;
52368;SDS011;38298;50.346;3.526;2023-07-16T12:26:09;4.50;;;2.00;;
52368;SDS011;38298;50.346;3.526;2023-07-16T12:28:35;3.30;;;1.58;;
52368;SDS011;38298;50.346;3.526;2023-07-16T12:31:01;2.90;;;1.60;;
52368;SDS011;38298;50.346;3.526;2023-07-16T12:33:27;5.50;;;1.52;;
52368;SDS011;38298;50.346;3.526;2023-07-16T12:35:53;3.53;;;1.52;;
52368;SDS011;38298;50.346;3.526;2023-07-16T12:38:19;3.05;;;1.58;;
52368;SDS011;38298;50.346;3.526;2023-07-16T12:40:46;5.13;;;1.90;;
52368;SDS011;38298;50.346;3.526;2023-07-16T12:43:12;5.88;;;1.63;;
52368;SDS011;38298;50.346;3.526;2023-07-16T12:45:38;4.82;;;1.80;;
52368;SDS011;38298;50.346;3.526;2023-07-16T12:48:04;5.72;;;1.77;;
52368;SDS011;38298;50.346;3.526;2023-07-16T12:50:30;3.83;;;1.73;;
52368;SDS011;38298;50.346;3.526;2023-07-16T12:52:56;3.95;;;1.58;;
52368;SDS011;38298;50.346;3.526;2023-07-16T12:55:22;4.22;;;1.60;;
52368;SDS011;38298;50.346;3.526;2023-07-16T12:57:48;5.65;;;1.80;;
52368;SDS011;38298;50.346;3.526;2023-07-16T13:00:15;2.80;;;1.58;;
52368;SDS011;38298;50.346;3.526;2023-07-16T13:02:41;4.03;;;1.80;;
52368;SDS011;38298;50.346;3.526;2023-07-16T13:05:07;7.32;;;1.48;;
52368;SDS011;38298;50.346;3.526;2023-07-16T13:07:33;4.15;;;1.52;;
52368;SDS011;38298;50.346;3.526;2023-07-16T13:09:59;4.05;;;1.63;;
52368;SDS011;38298;50.346;3.526;2023-07-16T13:12:25;3.80;;;1.45;;
52368;SDS011;38298;50.346;3.526;2023-07-16T13:14:51;3.55;;;1.63;;
52368;SDS011;38298;50.346;3.526;2023-07-16T13:17:17;6.53;;;1.75;;
52368;SDS011;38298;50.346;3.526;2023-07-16T13:19:44;2.30;;;1.27;;
52368;SDS011;38298;50.346;3.526;2023-07-16T13:22:10;4.22;;;1.60;;
52368;SDS011;38298;50.346;3.526;2023-07-16T13:24:37;2.92;;;1.40;;
52368;SDS011;38298;50.346;3.526;2023-07-16T13:27:03;5.07;;;1.27;;
52368;SDS011;38298;50.346;3.526;2023-07-16T13:29:29;5.07;;;1.48;;
52368;SDS011;38298;50.346;3.526;2023-07-16T13:31:55;3.08;;;1.80;;
52368;SDS011;38298;50.346;3.526;2023-07-16T13:34:21;4.68;;;1.60;;
52368;SDS011;38298;50.346;3.526;2023-07-16T13:36:47;6.95;;;1.45;;
52368;SDS011;38298;50.346;3.526;2023-07-16T13:39:13;4.43;;;1.20;;
52368;SDS011;38298;50.346;3.526;2023-07-16T13:41:39;3.25;;;1.27;;
52368;SDS011;38298;50.346;3.526;2023-07-16T13:44:05;5.80;;;1.60;;
52368;SDS011;38298;50.346;3.526;2023-07-16T13:46:31;5.07;;;1.33;;
52368;SDS011;38298;50.346;3.526;2023-07-16T13:48:57;4.55;;;1.48;;
52368;SDS011;38298;50.346;3.526;2023-07-16T13:51:25;3.70;;;1.40;;
52368;SDS011;38298;50.346;3.526;2023-07-16T13:53:51;2.15;;;1.42;;
52368;SDS011;38298;50.346;3.526;2023-07-16T13:56:17;4.72;;;1.48;;
52368;SDS011;38298;50.346;3.526;2023-07-16T13:58:43;3.90;;;1.95;;
52368;SDS011;38298;50.346;3.526;2023-07-16T14:01:09;7.20;;;3.35;;
52368;SDS011;38298;50.346;3.526;2023-07-16T14:03:35;6.28;;;2.15;;
52368;SDS011;38298;50.346;3.526;2023-07-16T14:06:01;15.50;;;1.90;;
52368;SDS011;38298;50.346;3.526;2023-07-16T14:08:27;5.53;;;2.00;;
52368;SDS011;38298;50.346;3.526;2023-07-16T14:10:54;6.05;;;1.52;;
52368;SDS011;38298;50.346;3.526;2023-07-16T14:13:20;4.70;;;1.55;;
52368;SDS011;38298;50.346;3.526;2023-07-16T14:15:46;4.75;;;1.73;;
52368;SDS011;38298;50.346;3.526;2023-07-16T14:18:12;2.20;;;1.35;;
52368;SDS011;38298;50.346;3.526;2023-07-16T14:20:38;7.95;;;1.50;;
52368;SDS011;38298;50.346;3.526;2023-07-16T14:23:04;2.58;;;1.10;;
52368;SDS011;38298;50.346;3.526;2023-07-16T14:25:31;2.95;;;1.50;;
52368;SDS011;38298;50.346;3.526;2023-07-16T14:27:57;2.20;;;1.20;;
52368;SDS011;38298;50.346;3.526;2023-07-16T14:30:23;3.15;;;1.33;;
52368;SDS011;38298;50.346;3.526;2023-07-16T14:32:49;3.78;;;1.52;;
52368;SDS011;38298;50.346;3.526;2023-07-16T14:35:15;2.40;;;1.20;;
52368;SDS011;38298;50.346;3.526;2023-07-16T14:37:41;5.70;;;1.60;;
52368;SDS011;38298;50.346;3.526;2023-07-16T14:40:07;4.45;;;1.30;;
52368;SDS011;38298;50.346;3.526;2023-07-16T14:42:34;2.92;;;1.60;;
52368;SDS011;38298;50.346;3.526;2023-07-16T14:45:00;2.97;;;1.35;;